Time;durP1;ratioP1;P1;durP2;ratioP2;P2;SDS_P1;SDS_P2;PMS_P1;PMS_P2;Temp;Humidity;BMP_temperature;BMP_pressure;BME280_temperature;BME280_humidity;BME280_pressure;Samples;Min_cycle;Max_cycle;Signal;HPM_P1;HPM_P2
2022/11/14 00:00:20;;;;;;;4.63;3.05;;;9.70;99.90;;;;;;5074280;28;20227;-75
2022/11/14 00:03:06;;;;;;;3.85;3.45;;;9.80;99.90;;;;;;5072801;28;20231;-75
2022/11/14 00:05:51;;;;;;;6.68;3.63;;;9.80;99.90;;;;;;5074340;28;20195;-75
2022/11/14 00:08:35;;;;;;;3.60;2.97;;;9.80;99.90;;;;;;5073922;28;20195;-75
2022/11/14 00:11:19;;;;;;;3.58;3.03;;;9.80;99.90;;;;;;5073755;28;20192;-74
2022/11/14 00:14:04;;;;;;;4.10;2.85;;;9.90;99.90;;;;;;5076402;28;20160;-75
2022/11/14 00:16:48;;;;;;;4.22;3.15;;;9.90;99.90;;;;;;5074073;28;20190;-75
2022/11/14 00:19:32;;;;;;;3.47;2.80;;;9.90;99.90;;;;;;5073985;28;20199;-74
2022/11/14 00:22:17;;;;;;;3.30;2.80;;;10.00;99.90;;;;;;5055537;28;20626;-75
2022/11/14 00:25:01;;;;;;;2.95;2.20;;;10.00;99.90;;;;;;5073693;28;20259;-75
2022/11/14 00:27:45;;;;;;;3.80;2.40;;;10.00;99.90;;;;;;5073833;28;20225;-75
2022/11/14 00:30:30;;;;;;;3.42;3.10;;;10.00;99.90;;;;;;5073613;28;20191;-75
2022/11/14 00:33:15;;;;;;;3.90;2.70;;;10.00;99.90;;;;;;5053877;28;20222;-75
2022/11/14 00:35:59;;;;;;;4.75;3.33;;;10.10;99.90;;;;;;5052623;28;20188;-75
2022/11/14 00:38:43;;;;;;;5.80;3.80;;;10.10;99.90;;;;;;5055315;28;20183;-75
2022/11/14 00:41:27;;;;;;;4.25;2.92;;;10.00;99.90;;;;;;5073267;28;20180;-75
2022/11/14 00:44:12;;;;;;;3.78;2.60;;;10.00;99.90;;;;;;5073221;28;20172;-75
2022/11/14 00:46:56;;;;;;;5.10;3.45;;;10.00;99.90;;;;;;5073423;28;20267;-74
2022/11/14 00:49:41;;;;;;;5.32;2.92;;;10.00;99.90;;;;;;5072012;28;20533;-75
2022/11/14 00:52:25;;;;;;;3.30;2.85;;;10.00;99.90;;;;;;5075655;28;20174;-75
2022/11/14 00:55:09;;;;;;;5.57;3.42;;;10.00;99.90;;;;;;5073231;28;20168;-75
2022/11/14 00:57:54;;;;;;;4.15;3.13;;;9.90;99.90;;;;;;5073250;28;20168;-75
2022/11/14 01:00:38;;;;;;;6.90;2.83;;;9.90;99.90;;;;;;5072908;28;20180;-75
2022/11/14 01:03:23;;;;;;;4.07;2.63;;;9.90;99.90;;;;;;5072704;28;20196;-75
2022/11/14 01:06:10;;;;;;;3.40;2.60;;;9.90;99.90;;;;;;5072984;28;20168;-75
2022/11/14 01:08:55;;;;;;;3.20;2.90;;;9.90;99.90;;;;;;5071706;28;20301;-75
2022/11/14 01:11:39;;;;;;;3.45;2.42;;;9.90;99.90;;;;;;5041854;28;20205;-75
2022/11/14 01:14:23;;;;;;;3.40;2.83;;;9.90;99.90;;;;;;5051981;28;20179;-75
2022/11/14 01:17:07;;;;;;;3.80;3.08;;;9.90;99.90;;;;;;5034978;28;20255;-75
2022/11/14 01:19:52;;;;;;;4.10;3.38;;;9.80;99.90;;;;;;5052666;28;20161;-75
2022/11/14 01:22:36;;;;;;;3.40;2.83;;;9.80;99.90;;;;;;5052233;28;20196;-75
2022/11/14 01:25:21;;;;;;;3.20;2.80;;;9.80;99.90;;;;;;5052889;28;20157;-75
2022/11/14 01:28:10;;;;;;;3.40;2.70;;;9.70;99.90;;;;;;5053927;28;20169;-75
2022/11/14 01:30:55;;;;;;;3.53;2.47;;;9.70;99.90;;;;;;5051651;28;20189;-75
2022/11/14 01:33:39;;;;;;;3.47;2.83;;;9.70;99.90;;;;;;5052389;28;20192;-75
2022/11/14 01:36:23;;;;;;;5.18;2.78;;;9.70;99.90;;;;;;5052522;28;20165;-75
2022/11/14 01:39:08;;;;;;;4.20;3.30;;;9.60;99.90;;;;;;5052499;28;20651;-74
2022/11/14 01:41:52;;;;;;;3.58;2.90;;;9.60;99.90;;;;;;5050996;28;20586;-75
2022/11/14 01:44:51;;;;;;;4.15;2.47;;;9.50;99.90;;;;;;5052250;28;20173;-75
2022/11/14 01:47:35;;;;;;;3.30;2.72;;;9.50;99.90;;;;;;5052106;28;20256;-75
2022/11/14 01:50:20;;;;;;;3.40;2.90;;;9.50;99.90;;;;;;5052218;28;20181;-75
2022/11/14 01:53:04;;;;;;;4.45;2.88;;;9.40;99.90;;;;;;5051635;28;20173;-75
2022/11/14 01:55:49;;;;;;;4.10;2.95;;;9.40;99.90;;;;;;5052122;28;20180;-76
2022/11/14 01:58:38;;;;;;;4.88;3.10;;;9.30;99.90;;;;;;5052020;28;20181;-75
2022/11/14 02:01:24;;;;;;;4.43;2.88;;;9.30;99.90;;;;;;5051745;28;20212;-75
2022/11/14 02:04:09;;;;;;;4.97;2.40;;;9.20;99.90;;;;;;5051699;28;20180;-75
2022/11/14 02:06:57;;;;;;;3.22;2.58;;;9.20;99.90;;;;;;5054812;28;20161;-75
2022/11/14 02:09:44;;;;;;;3.70;2.70;;;9.10;99.90;;;;;;5053166;28;20169;-75
2022/11/14 02:12:29;;;;;;;3.65;3.10;;;9.00;99.90;;;;;;5052023;28;20176;-75
2022/11/14 02:15:14;;;;;;;3.20;2.30;;;9.00;99.90;;;;;;5051672;28;20259;-74
2022/11/14 02:18:00;;;;;;;2.55;2.00;;;8.90;99.90;;;;;;5051815;28;20161;-75
2022/11/14 02:20:45;;;;;;;3.67;2.63;;;8.90;99.90;;;;;;5051698;28;20707;-75
2022/11/14 02:23:31;;;;;;;3.70;2.30;;;8.80;99.90;;;;;;5036176;28;20576;-75
2022/11/14 02:26:19;;;;;;;3.67;2.67;;;8.70;99.90;;;;;;5051700;28;20581;-75
2022/11/14 02:29:09;;;;;;;5.55;2.85;;;8.70;99.90;;;;;;5050552;28;20523;-75
2022/11/14 02:31:53;;;;;;;5.10;3.13;;;8.60;99.90;;;;;;5033629;28;20197;-75
2022/11/14 02:34:38;;;;;;;3.35;2.80;;;8.60;99.90;;;;;;5051653;28;20161;-75
2022/11/14 02:37:22;;;;;;;3.65;3.35;;;8.60;99.90;;;;;;5051566;28;20177;-75
2022/11/14 02:40:07;;;;;;;4.60;2.90;;;8.60;99.90;;;;;;5050400;28;20193;-74
2022/11/14 02:42:52;;;;;;;3.20;2.42;;;8.60;99.90;;;;;;5066367;28;20196;-74
2022/11/14 02:45:36;;;;;;;4.45;3.00;;;8.60;99.90;;;;;;5051385;28;20624;-74
2022/11/14 02:48:20;;;;;;;3.45;2.42;;;8.60;99.90;;;;;;5051520;28;20189;-74
2022/11/14 02:51:05;;;;;;;4.78;3.33;;;8.60;99.90;;;;;;5051159;28;20212;-75
2022/11/14 02:53:49;;;;;;;3.83;2.85;;;8.60;99.90;;;;;;5051213;28;20196;-75
2022/11/14 02:56:34;;;;;;;2.90;2.20;;;8.60;99.90;;;;;;5051420;28;20612;-74
2022/11/14 02:59:18;;;;;;;4.35;2.45;;;8.60;99.90;;;;;;5051455;28;20177;-75
2022/11/14 03:02:02;;;;;;;4.45;2.05;;;8.60;99.90;;;;;;5050893;28;20192;-74
2022/11/14 03:04:47;;;;;;;3.78;2.53;;;8.60;99.90;;;;;;5051375;28;20169;-75
2022/11/14 03:07:32;;;;;;;4.00;2.80;;;8.60;99.90;;;;;;5051437;28;20248;-75
2022/11/14 03:10:16;;;;;;;3.55;2.20;;;8.60;99.90;;;;;;5049788;28;20660;-75
2022/11/14 03:13:01;;;;;;;3.20;2.67;;;8.70;99.90;;;;;;5057187;28;20189;-75
2022/11/14 03:15:45;;;;;;;5.15;2.90;;;8.70;99.90;;;;;;5074620;28;20267;-76
2022/11/14 03:18:29;;;;;;;3.63;2.60;;;8.70;99.90;;;;;;5075541;28;20172;-75
2022/11/14 03:21:16;;;;;;;3.65;2.80;;;8.70;99.90;;;;;;5076286;28;20680;-75
2022/11/14 03:24:00;;;;;;;4.40;3.28;;;8.70;99.90;;;;;;5055765;28;20211;-74
2022/11/14 03:26:45;;;;;;;4.55;3.42;;;8.80;99.90;;;;;;5054717;28;20189;-74
2022/11/14 03:29:29;;;;;;;3.25;2.20;;;8.80;99.90;;;;;;5055009;28;20173;-75
2022/11/14 03:32:14;;;;;;;3.60;2.85;;;8.80;99.90;;;;;;5054433;28;20522;-75
2022/11/14 03:34:59;;;;;;;3.03;2.30;;;8.80;99.90;;;;;;5054855;28;20169;-74
2022/11/14 03:37:43;;;;;;;4.22;3.45;;;8.90;99.90;;;;;;5054849;28;20641;-75
2022/11/14 03:40:27;;;;;;;4.65;2.97;;;8.90;99.90;;;;;;5039661;28;20200;-75
2022/11/14 03:43:11;;;;;;;5.53;3.50;;;8.90;99.90;;;;;;5054494;28;20192;-74
2022/11/14 03:46:02;;;;;;;4.95;3.75;;;8.90;99.90;;;;;;5053676;28;20169;-74
2022/11/14 03:48:47;;;;;;;4.60;3.75;;;8.90;99.90;;;;;;5053322;28;20169;-74
2022/11/14 03:51:31;;;;;;;4.50;4.10;;;8.90;99.90;;;;;;5054598;28;20677;-75
2022/11/14 03:54:15;;;;;;;3.78;3.15;;;8.90;99.90;;;;;;5054525;28;20254;-74
2022/11/14 03:57:00;;;;;;;3.60;2.70;;;8.90;99.90;;;;;;5058016;28;20220;-74
2022/11/14 03:59:45;;;;;;;3.60;3.03;;;8.90;99.90;;;;;;5054362;28;20524;-74
2022/11/14 04:02:29;;;;;;;4.85;3.47;;;8.90;99.90;;;;;;5053659;28;20630;-74
2022/11/14 04:05:14;;;;;;;4.40;3.20;;;8.80;99.90;;;;;;5054273;28;20511;-74
2022/11/14 04:07:58;;;;;;;4.78;3.78;;;8.90;99.90;;;;;;5054034;28;20176;-74
2022/11/14 04:10:45;;;;;;;3.38;2.83;;;8.80;99.90;;;;;;5053011;28;20189;-74
2022/11/14 04:13:29;;;;;;;4.53;3.00;;;8.80;99.90;;;;;;5053544;28;20169;-74
2022/11/14 04:16:13;;;;;;;5.38;3.78;;;8.80;99.90;;;;;;5054188;28;20179;-74
2022/11/14 04:18:58;;;;;;;3.33;3.03;;;8.80;99.90;;;;;;5053821;28;20177;-73
2022/11/14 04:21:42;;;;;;;4.38;3.03;;;8.70;99.90;;;;;;5053721;28;20189;-74
2022/11/14 04:24:26;;;;;;;3.58;2.83;;;8.70;99.90;;;;;;5053211;28;20176;-73
2022/11/14 04:27:11;;;;;;;3.38;2.70;;;8.70;99.90;;;;;;5053900;28;20645;-73
2022/11/14 04:29:55;;;;;;;4.63;3.05;;;8.70;99.90;;;;;;5053171;28;20696;-73
2022/11/14 04:32:40;;;;;;;5.72;3.10;;;8.60;99.90;;;;;;5045470;28;20176;-75
2022/11/14 04:35:24;;;;;;;4.07;2.50;;;8.60;99.90;;;;;;5076060;28;20172;-74
2022/11/14 04:38:09;;;;;;;4.32;2.65;;;8.60;99.90;;;;;;5055217;28;20169;-74
2022/11/14 04:40:53;;;;;;;5.68;3.20;;;8.60;99.90;;;;;;5053669;28;20611;-74
2022/11/14 04:43:38;;;;;;;4.55;3.38;;;8.60;99.90;;;;;;5057662;28;20196;-74
2022/11/14 04:46:22;;;;;;;4.45;3.40;;;8.60;99.90;;;;;;5061515;28;20181;-74
2022/11/14 04:49:06;;;;;;;4.28;3.13;;;8.50;99.90;;;;;;5033341;28;20178;-74
2022/11/14 04:51:51;;;;;;;3.38;3.08;;;8.50;99.90;;;;;;5034204;28;20182;-75
2022/11/14 04:54:35;;;;;;;4.97;3.38;;;8.50;99.90;;;;;;5033369;28;20162;-75
2022/11/14 04:57:19;;;;;;;3.40;2.80;;;8.50;99.90;;;;;;5033310;28;20161;-75
2022/11/14 05:00:05;;;;;;;6.32;3.35;;;8.50;99.90;;;;;;5033217;28;20284;-75
2022/11/14 05:02:50;;;;;;;4.90;2.95;;;8.50;99.90;;;;;;5032705;28;20198;-75
2022/11/14 05:05:34;;;;;;;3.63;3.00;;;8.50;99.90;;;;;;5031759;28;20586;-75
2022/11/14 05:08:18;;;;;;;5.57;3.20;;;8.50;99.90;;;;;;5033024;28;20554;-75
2022/11/14 05:11:02;;;;;;;6.30;3.25;;;8.40;99.90;;;;;;5035122;28;20185;-75
2022/11/14 05:13:47;;;;;;;4.88;3.03;;;8.40;99.90;;;;;;5016152;28;20173;-75
2022/11/14 05:16:31;;;;;;;5.07;3.70;;;8.40;99.90;;;;;;5032839;28;20215;-75
2022/11/14 05:19:15;;;;;;;6.32;4.20;;;8.40;99.90;;;;;;5031273;28;20169;-75
2022/11/14 05:22:00;;;;;;;5.28;3.67;;;8.40;99.90;;;;;;5030974;28;20189;-75
2022/11/14 05:24:45;;;;;;;5.80;4.03;;;8.40;99.90;;;;;;5031177;28;20166;-75
2022/11/14 05:27:29;;;;;;;6.87;4.90;;;8.40;99.90;;;;;;5038485;28;20740;-76
2022/11/14 05:30:13;;;;;;;6.95;4.57;;;8.40;99.90;;;;;;5034934;28;20627;-76
2022/11/14 05:32:59;;;;;;;5.90;4.30;;;8.50;99.90;;;;;;5043597;28;20622;-77
2022/11/14 05:35:43;;;;;;;7.13;3.35;;;8.60;99.90;;;;;;5057666;28;20526;-76
2022/11/14 05:38:28;;;;;;;8.45;4.70;;;8.60;99.90;;;;;;5058783;28;20161;-76
2022/11/14 05:41:15;;;;;;;5.05;3.75;;;8.60;99.90;;;;;;5037950;28;20199;-76
2022/11/14 05:43:59;;;;;;;5.38;3.95;;;8.60;99.90;;;;;;5058537;28;20200;-77
2022/11/14 05:46:43;;;;;;;4.78;3.30;;;8.60;99.90;;;;;;5056686;28;20157;-76
2022/11/14 05:49:28;;;;;;;6.40;3.45;;;8.60;99.90;;;;;;5062985;28;20172;-76
2022/11/14 05:52:13;;;;;;;4.70;3.45;;;8.60;99.90;;;;;;5067920;28;20177;-77
2022/11/14 05:55:00;;;;;;;8.25;4.60;;;8.60;99.90;;;;;;5059684;28;20185;-77
2022/11/14 05:57:45;;;;;;;7.57;5.68;;;8.60;99.90;;;;;;5080617;28;20176;-76
2022/11/14 06:00:29;;;;;;;4.82;4.18;;;8.50;99.90;;;;;;5080056;28;20528;-76
2022/11/14 06:03:15;;;;;;;11.18;4.72;;;8.50;99.90;;;;;;5079862;28;20200;-77
2022/11/14 06:06:05;;;;;;;8.05;3.35;;;8.50;99.90;;;;;;5079434;28;20259;-77
2022/11/14 06:08:49;;;;;;;5.85;4.82;;;8.40;99.90;;;;;;5061869;28;20169;-76
2022/11/14 06:11:33;;;;;;;7.43;5.07;;;8.40;99.90;;;;;;5079147;28;20223;-77
2022/11/14 06:14:18;;;;;;;7.25;4.75;;;8.40;99.90;;;;;;5039056;28;20177;-76
2022/11/14 06:17:02;;;;;;;5.20;4.10;;;8.40;99.90;;;;;;5039533;28;20169;-76
2022/11/14 06:19:47;;;;;;;5.03;3.97;;;8.40;99.90;;;;;;5039267;28;20169;-77
2022/11/14 06:22:32;;;;;;;6.57;4.88;;;8.40;99.90;;;;;;5037814;28;20197;-77
2022/11/14 06:25:16;;;;;;;4.38;3.97;;;8.40;99.90;;;;;;5044126;28;20178;-77
2022/11/14 06:28:00;;;;;;;6.10;4.43;;;8.40;99.90;;;;;;5037409;28;20173;-76
2022/11/14 06:30:45;;;;;;;6.05;5.00;;;8.30;99.90;;;;;;5038633;28;20529;-77
2022/11/14 06:33:33;;;;;;;6.38;5.03;;;8.30;99.90;;;;;;5037445;28;20256;-77
2022/11/14 06:36:18;;;;;;;7.00;4.60;;;8.30;99.90;;;;;;5040787;28;20177;-77
2022/11/14 06:39:02;;;;;;;7.53;4.45;;;8.30;99.90;;;;;;5034286;28;20185;-78
2022/11/14 06:41:47;;;;;;;9.80;5.85;;;8.30;99.90;;;;;;5034365;28;20235;-75
2022/11/14 06:44:31;;;;;;;8.43;5.50;;;8.30;99.90;;;;;;5016761;28;20174;-75
2022/11/14 06:47:15;;;;;;;6.43;5.18;;;8.30;99.90;;;;;;5032783;28;20181;-75
2022/11/14 06:49:59;;;;;;;5.70;4.57;;;8.20;99.90;;;;;;5018914;28;20344;-75
2022/11/14 06:52:44;;;;;;;5.70;4.13;;;8.20;99.90;;;;;;5054673;28;20654;-75
2022/11/14 06:55:28;;;;;;;8.45;6.03;;;8.20;99.90;;;;;;5063281;28;20164;-75
2022/11/14 06:58:12;;;;;;;7.40;5.78;;;8.20;99.90;;;;;;5062986;28;20169;-75
2022/11/14 07:01:03;;;;;;;7.55;5.45;;;8.20;99.90;;;;;;5054938;28;20590;-75
2022/11/14 07:03:48;;;;;;;8.48;6.18;;;8.30;99.90;;;;;;5055479;28;20189;-76
2022/11/14 07:06:33;;;;;;;9.60;5.97;;;8.40;99.90;;;;;;5035545;28;20174;-76
2022/11/14 07:09:18;;;;;;;7.47;5.45;;;8.40;99.90;;;;;;5035313;28;20630;-74
2022/11/14 07:12:02;;;;;;;8.45;6.35;;;8.50;99.90;;;;;;5034750;28;20204;-75
2022/11/14 07:14:47;;;;;;;7.38;6.10;;;8.60;99.90;;;;;;5055032;28;20195;-75
2022/11/14 07:17:34;;;;;;;7.88;6.88;;;8.70;99.90;;;;;;5055307;28;20172;-75
2022/11/14 07:20:18;;;;;;;8.00;6.13;;;8.70;99.90;;;;;;5057114;28;20263;-76
2022/11/14 07:23:02;;;;;;;9.43;7.55;;;8.80;99.90;;;;;;5054486;28;20703;-75
2022/11/14 07:25:47;;;;;;;10.90;9.27;;;8.90;99.90;;;;;;5035085;28;20165;-75
2022/11/14 07:28:33;;;;;;;11.98;9.40;;;8.90;99.90;;;;;;5054960;28;20164;-75
2022/11/14 07:31:18;;;;;;;11.57;9.65;;;9.00;99.90;;;;;;5073667;28;20192;-74
2022/11/14 07:34:04;;;;;;;8.23;7.32;;;9.00;99.90;;;;;;5073077;28;20226;-74
2022/11/14 07:36:49;;;;;;;9.00;7.10;;;9.10;99.90;;;;;;5074688;28;20247;-74
2022/11/14 07:39:33;;;;;;;10.98;7.95;;;9.20;99.90;;;;;;5075043;28;20160;-74
2022/11/14 07:42:18;;;;;;;12.52;7.47;;;9.30;99.90;;;;;;5060628;28;20216;-75
2022/11/14 07:45:02;;;;;;;9.80;7.32;;;9.30;99.90;;;;;;5074784;28;20539;-74
2022/11/14 07:47:46;;;;;;;12.02;8.45;;;9.40;99.90;;;;;;5074432;28;20164;-75
2022/11/14 07:50:31;;;;;;;14.25;10.50;;;9.40;99.90;;;;;;5074371;28;20184;-74
2022/11/14 07:53:16;;;;;;;12.05;9.25;;;9.40;99.90;;;;;;5074059;28;20632;-74
2022/11/14 07:56:08;;;;;;;12.02;8.85;;;9.40;99.90;;;;;;5074245;28;20179;-75
2022/11/14 07:58:53;;;;;;;13.10;10.93;;;9.40;99.90;;;;;;5072036;28;20176;-74
2022/11/14 08:01:37;;;;;;;10.40;8.43;;;9.40;99.90;;;;;;5056232;28;20192;-75
2022/11/14 08:04:21;;;;;;;12.85;9.55;;;9.40;99.90;;;;;;5073656;28;20286;-74
2022/11/14 08:07:06;;;;;;;11.82;8.95;;;9.40;99.90;;;;;;5073859;28;20180;-75
2022/11/14 08:09:50;;;;;;;11.70;9.20;;;9.50;99.90;;;;;;5073602;28;20259;-75
2022/11/14 08:12:34;;;;;;;9.35;8.45;;;9.50;99.90;;;;;;5072419;28;20180;-75
2022/11/14 08:15:19;;;;;;;12.40;9.13;;;9.50;99.90;;;;;;5073983;28;20169;-74
2022/11/14 08:18:03;;;;;;;12.57;10.60;;;9.50;99.90;;;;;;5077552;28;20513;-74
2022/11/14 08:20:48;;;;;;;11.15;8.35;;;9.40;99.90;;;;;;5042500;28;20192;-75
2022/11/14 08:23:33;;;;;;;12.23;8.73;;;9.40;99.90;;;;;;5053804;28;20299;-76
2022/11/14 08:26:17;;;;;;;12.27;8.40;;;9.40;99.90;;;;;;5053455;28;20165;-75
2022/11/14 08:29:01;;;;;;;10.38;8.85;;;9.50;99.90;;;;;;5052577;28;20176;-75
2022/11/14 08:31:46;;;;;;;11.93;9.90;;;9.40;99.90;;;;;;5060935;28;20330;-76
2022/11/14 08:34:31;;;;;;;12.02;9.93;;;9.50;99.90;;;;;;5070618;28;20172;-75
2022/11/14 08:37:15;;;;;;;11.20;9.05;;;9.40;99.90;;;;;;5073624;28;20179;-76
2022/11/14 08:39:59;;;;;;;11.55;9.38;;;9.40;99.90;;;;;;5073788;28;20235;-76
2022/11/14 08:42:43;;;;;;;13.15;9.82;;;9.50;99.90;;;;;;5072337;28;20204;-76
2022/11/14 08:45:29;;;;;;;13.75;9.50;;;9.50;99.90;;;;;;5073683;28;20196;-76
2022/11/14 08:48:13;;;;;;;12.90;9.98;;;9.50;99.90;;;;;;5073392;28;20164;-76
2022/11/14 08:51:05;;;;;;;19.25;11.73;;;9.50;99.90;;;;;;5073510;28;20180;-76
2022/11/14 08:53:51;;;;;;;17.45;12.27;;;9.50;99.90;;;;;;5074275;28;20172;-76
2022/11/14 08:56:35;;;;;;;14.93;11.75;;;9.50;99.90;;;;;;5073470;28;20175;-76
2022/11/14 08:59:19;;;;;;;15.75;12.25;;;9.50;99.90;;;;;;5073125;28;20290;-76
2022/11/14 09:02:04;;;;;;;18.35;13.13;;;9.50;99.90;;;;;;5054291;28;20197;-76
2022/11/14 09:04:48;;;;;;;12.50;10.80;;;9.50;99.90;;;;;;5053028;28;20165;-75
2022/11/14 09:07:32;;;;;;;15.70;13.30;;;9.60;99.90;;;;;;5053344;28;20171;-75
2022/11/14 09:10:17;;;;;;;15.60;12.73;;;9.60;99.90;;;;;;5052319;28;20181;-76
2022/11/14 09:13:01;;;;;;;16.35;12.32;;;9.50;99.90;;;;;;5034515;28;20656;-75
2022/11/14 09:15:45;;;;;;;15.68;11.95;;;9.50;99.90;;;;;;5053070;28;20177;-75
2022/11/14 09:18:30;;;;;;;18.50;12.65;;;9.50;99.90;;;;;;5053120;28;20538;-75
2022/11/14 09:21:15;;;;;;;15.07;10.98;;;9.50;99.90;;;;;;5059015;28;20204;-75
2022/11/14 09:23:59;;;;;;;16.55;12.52;;;9.60;99.90;;;;;;5036611;28;20239;-75
2022/11/14 09:26:43;;;;;;;16.90;12.73;;;9.60;99.90;;;;;;5021092;28;20633;-75
2022/11/14 09:29:27;;;;;;;15.35;12.32;;;9.70;99.90;;;;;;5052334;28;20169;-75
2022/11/14 09:32:12;;;;;;;18.15;13.15;;;9.70;99.90;;;;;;5054389;28;20173;-74
2022/11/14 09:34:56;;;;;;;16.40;11.30;;;9.70;99.90;;;;;;5054023;28;20211;-75
2022/11/14 09:37:41;;;;;;;12.15;10.82;;;9.80;99.90;;;;;;5052412;28;20248;-75
2022/11/14 09:40:25;;;;;;;17.20;13.00;;;9.90;99.90;;;;;;5033992;28;20220;-74
2022/11/14 09:43:22;;;;;;;15.35;12.30;;;9.90;99.90;;;;;;5051409;28;20201;-74
2022/11/14 09:46:23;;;;;;;18.27;14.55;;;9.90;99.90;;;;;;5052338;28;20223;-75
2022/11/14 09:49:53;;;;;;;14.10;11.13;;;9.90;99.90;;;;;;5034451;28;20165;-75
2022/11/14 09:52:44;;;;;;;22.98;15.63;;;10.00;99.90;;;;;;4990471;28;20275;-75
2022/11/14 09:55:31;;;;;;;14.73;12.23;;;10.00;99.90;;;;;;4974335;28;20179;-74
2022/11/14 09:58:20;;;;;;;18.17;13.30;;;10.20;99.90;;;;;;5046313;28;20177;-75
2022/11/14 10:01:11;;;;;;;19.20;14.30;;;10.10;99.90;;;;;;5051834;28;20192;-75
2022/11/14 10:04:18;;;;;;;19.40;13.50;;;10.10;99.90;;;;;;5051424;28;20197;-75
2022/11/14 10:07:17;;;;;;;16.45;12.18;;;10.20;99.90;;;;;;5051828;28;20725;-75
2022/11/14 10:10:39;;;;;;;17.13;13.23;;;10.20;99.90;;;;;;5051551;28;20596;-75
2022/11/14 10:13:40;;;;;;;17.20;12.27;;;10.40;99.90;;;;;;5036343;28;20545;-75
2022/11/14 10:16:49;;;;;;;23.30;15.10;;;10.50;99.90;;;;;;5051676;28;20646;-75
2022/11/14 10:19:58;;;;;;;18.35;12.85;;;10.50;99.90;;;;;;5051587;28;20161;-75
2022/11/14 10:22:48;;;;;;;16.00;13.45;;;10.60;99.90;;;;;;5050765;28;20303;-75
2022/11/14 10:25:42;;;;;;;16.73;12.63;;;10.70;99.90;;;;;;5051378;28;20527;-75
2022/11/14 10:28:58;;;;;;;16.65;12.27;;;10.80;99.90;;;;;;5051620;28;20162;-75
2022/11/14 10:32:08;;;;;;;16.20;11.57;;;10.90;99.90;;;;;;5036031;28;20197;-75
2022/11/14 10:35:10;;;;;;;21.05;12.35;;;10.90;99.90;;;;;;5051459;28;20256;-75
2022/11/14 10:38:09;;;;;;;14.65;11.23;;;10.90;99.90;;;;;;5051395;28;20168;-74
2022/11/14 10:41:03;;;;;;;13.60;11.90;;;11.00;99.90;;;;;;5051261;28;20177;-74
2022/11/14 10:43:48;;;;;;;19.92;13.68;;;11.00;99.90;;;;;;5051017;28;20200;-74
2022/11/14 10:46:50;;;;;;;20.13;15.38;;;11.00;99.90;;;;;;5051490;28;20172;-75
2022/11/14 10:49:36;;;;;;;20.13;14.13;;;11.00;99.90;;;;;;5050354;28;20266;-75
2022/11/14 10:52:34;;;;;;;16.77;12.48;;;11.00;99.90;;;;;;5071252;23;20264;-85
2022/11/14 10:55:20;;;;;;;17.27;11.77;;;11.00;99.90;;;;;;5066543;28;20191;-86
2022/11/14 10:58:10;;;;;;;18.08;13.65;;;11.10;99.90;;;;;;5070521;28;20563;-85
2022/11/14 11:00:55;;;;;;;15.85;12.55;;;11.20;99.90;;;;;;5052575;28;20177;-86
2022/11/14 11:03:42;;;;;;;15.98;11.35;;;11.30;99.90;;;;;;5033434;28;20208;-86
2022/11/14 11:06:28;;;;;;;16.90;12.43;;;11.40;99.90;;;;;;5076469;28;20173;-86
2022/11/14 11:12:38;;;;;;;18.88;13.88;;;11.40;99.90;;;;;;5032822;28;20322;-84
2022/11/14 11:15:29;;;;;;;21.17;14.98;;;11.40;99.90;;;;;;5055922;28;20536;-83
2022/11/14 11:18:28;;;;;;;16.27;12.85;;;11.30;99.90;;;;;;5059615;28;20208;-85
2022/11/14 11:21:15;;;;;;;20.48;14.90;;;11.20;99.90;;;;;;5055713;28;20200;-86
2022/11/14 11:24:00;;;;;;;20.83;17.02;;;11.20;99.90;;;;;;5037724;28;20209;-82
2022/11/14 11:26:45;;;;;;;16.95;13.02;;;11.20;99.90;;;;;;5056536;28;20565;-82
2022/11/14 11:29:29;;;;;;;18.55;14.38;;;11.20;99.90;;;;;;5061797;28;20164;-82
2022/11/14 11:32:28;;;;;;;19.58;15.10;;;11.20;99.90;;;;;;5070690;28;20176;-82
2022/11/14 11:35:15;;;;;;;22.35;15.57;;;11.10;99.90;;;;;;5073733;28;20184;-82
2022/11/14 11:38:04;;;;;;;18.60;15.77;;;11.10;99.90;;;;;;5073706;28;20179;-82
2022/11/14 11:40:53;;;;;;;17.60;14.15;;;11.10;99.90;;;;;;5046981;28;20205;-85
2022/11/14 11:43:53;;;;;;;16.00;13.82;;;10.90;99.90;;;;;;5069344;28;20209;-85
2022/11/14 11:46:43;;;;;;;18.58;13.68;;;11.00;99.90;;;;;;5074779;28;20169;-85
2022/11/14 11:49:43;;;;;;;19.33;13.77;;;11.10;99.90;;;;;;5075032;28;20160;-85
2022/11/14 11:52:42;;;;;;;16.90;12.05;;;11.20;99.90;;;;;;5074346;28;20188;-85
2022/11/14 11:55:32;;;;;;;18.30;13.82;;;11.30;99.90;;;;;;5074860;28;20172;-86
2022/11/14 11:58:24;;;;;;;22.10;14.75;;;11.30;99.90;;;;;;5057232;28;20538;-85
2022/11/14 12:01:10;;;;;;;14.85;13.25;;;11.30;99.90;;;;;;5054477;28;20176;-85
2022/11/14 12:03:54;;;;;;;18.42;14.57;;;11.30;99.90;;;;;;5054855;28;20232;-86
2022/11/14 12:06:49;;;;;;;21.52;15.82;;;11.30;99.90;;;;;;5062840;28;20168;-90
2022/11/14 12:09:37;;;;;;;17.77;12.70;;;11.30;99.90;;;;;;5090599;28;20624;-90
2022/11/14 12:12:42;;;;;;;17.35;13.70;;;11.50;99.90;;;;;;5069600;28;20277;-89
2022/11/14 12:15:59;;;;;;;17.40;13.25;;;11.60;99.90;;;;;;5053487;28;20185;-91
2022/11/14 12:19:02;;;;;;;17.40;13.18;;;11.50;99.90;;;;;;5051329;28;20546;-86
2022/11/14 12:22:07;;;;;;;17.80;14.90;;;11.60;99.90;;;;;;5067184;28;20183;-89
2022/11/14 12:25:14;;;;;;;20.05;16.23;;;11.60;99.90;;;;;;5068342;28;20273;-88
2022/11/14 12:28:27;;;;;;;17.38;13.60;;;11.60;99.90;;;;;;5039539;28;20184;-88
2022/11/14 12:31:15;;;;;;;20.55;15.18;;;11.60;99.90;;;;;;5039611;28;20261;-87
2022/11/14 12:34:04;;;;;;;18.80;13.63;;;11.50;99.90;;;;;;5058394;28;20204;-89
2022/11/14 12:36:49;;;;;;;15.98;13.05;;;11.60;99.90;;;;;;5056511;28;20193;-90
2022/11/14 12:39:33;;;;;;;17.35;12.63;;;11.60;99.90;;;;;;5038415;28;20161;-89
2022/11/14 12:42:20;;;;;;;19.20;14.40;;;11.60;99.90;;;;;;5056805;28;20684;-88
2022/11/14 12:45:40;;;;;;;17.25;13.82;;;11.70;99.90;;;;;;5053141;28;20632;-89
2022/11/14 12:48:24;;;;;;;18.27;14.10;;;11.70;99.90;;;;;;5053144;28;20173;-88
2022/11/14 12:51:24;;;;;;;17.35;13.85;;;11.70;99.90;;;;;;5036179;28;20168;-89
2022/11/14 12:54:44;;;;;;;18.30;14.63;;;11.60;99.90;;;;;;5053785;28;20207;-89
2022/11/14 12:58:01;;;;;;;16.73;13.25;;;11.60;99.90;;;;;;5060336;28;20180;-87
2022/11/14 13:00:45;;;;;;;15.52;12.30;;;11.50;99.90;;;;;;5036857;28;20604;-90
2022/11/14 13:03:38;;;;;;;17.58;13.15;;;11.60;99.90;;;;;;5058184;28;20790;-90
2022/11/14 13:06:33;;;;;;;21.80;14.95;;;11.60;99.90;;;;;;5055300;28;20224;-91
2022/11/14 13:09:55;;;;;;;18.77;13.90;;;11.50;99.90;;;;;;5067893;28;20200;-91
2022/11/14 13:22:53;;;;;;;15.20;13.00;;;11.50;99.90;;;;;;5065839;28;20262;-90
2022/11/14 13:25:37;;;;;;;17.00;13.82;;;11.40;99.90;;;;;;5051273;28;20189;-90
2022/11/14 13:28:49;;;;;;;15.88;12.80;;;11.50;99.90;;;;;;5055063;28;20142;-89
2022/11/14 13:31:35;;;;;;;14.63;11.90;;;11.50;99.90;;;;;;5059306;28;20166;-89
2022/11/14 13:34:37;;;;;;;19.27;15.32;;;11.50;99.90;;;;;;5057885;28;20193;-87
2022/11/14 13:37:51;;;;;;;16.08;13.98;;;11.40;99.90;;;;;;5039624;28;20568;-90
2022/11/14 13:40:53;;;;;;;18.30;13.60;;;11.40;99.90;;;;;;5054942;28;20211;-88
2022/11/14 13:44:03;;;;;;;17.05;12.50;;;11.40;99.90;;;;;;5055595;28;20307;-85
2022/11/14 13:46:53;;;;;;;17.83;13.60;;;11.40;99.90;;;;;;5041535;28;20636;-83
2022/11/14 13:50:01;;;;;;;17.90;14.20;;;11.40;99.90;;;;;;5034694;28;20169;-83
2022/11/14 13:52:47;;;;;;;16.63;13.05;;;11.40;99.90;;;;;;5038608;28;20208;-83
2022/11/14 13:55:59;;;;;;;21.75;15.10;;;11.40;99.90;;;;;;5061928;28;20266;-83
2022/11/14 13:58:55;;;;;;;18.95;14.38;;;11.30;99.90;;;;;;5053631;28;20179;-89
2022/11/14 14:01:44;;;;;;;17.55;13.13;;;11.40;99.90;;;;;;5077463;28;20180;-90
2022/11/14 14:04:46;;;;;;;16.92;13.32;;;11.40;99.90;;;;;;5069746;28;20276;-90
2022/11/14 14:07:40;;;;;;;19.85;15.23;;;11.30;99.90;;;;;;5057246;28;20187;-87
2022/11/14 14:10:49;;;;;;;17.65;14.50;;;11.40;99.90;;;;;;5069847;28;21276;-88
2022/11/14 14:13:56;;;;;;;19.63;13.57;;;11.30;99.90;;;;;;5059023;28;20327;-85
2022/11/14 14:17:08;;;;;;;18.55;15.43;;;11.30;99.90;;;;;;5054293;28;20185;-86
2022/11/14 14:20:17;;;;;;;20.42;15.20;;;11.20;99.90;;;;;;5068914;28;20157;-90
2022/11/14 14:23:22;;;;;;;21.40;15.68;;;11.30;99.90;;;;;;5049380;28;20205;-85
2022/11/14 14:26:19;;;;;;;21.52;15.60;;;11.30;99.90;;;;;;5058030;28;20662;-88
2022/11/14 14:29:23;;;;;;;19.02;13.43;;;11.30;99.90;;;;;;5041317;28;20230;-84
2022/11/14 14:32:19;;;;;;;15.15;13.45;;;11.30;99.90;;;;;;5065907;28;20783;-91
2022/11/14 14:35:24;;;;;;;17.20;14.02;;;11.30;99.90;;;;;;5052573;28;20161;-87
2022/11/14 14:38:12;;;;;;;16.13;13.65;;;11.30;99.90;;;;;;5033946;28;20239;-85
2022/11/14 14:40:57;;;;;;;17.63;14.00;;;11.40;99.90;;;;;;5034040;28;20220;-88
2022/11/14 14:43:48;;;;;;;16.00;13.68;;;11.40;99.90;;;;;;5036375;28;20213;-87
2022/11/14 14:46:33;;;;;;;16.27;12.73;;;11.50;99.90;;;;;;5053439;28;20174;-85
2022/11/14 14:49:35;;;;;;;19.15;13.80;;;11.50;99.90;;;;;;5057337;28;20204;-82